Terminal Aerodrome Forecast
Issued by NWS

Current Version | Previous Version | Text Only | Print | Product List | Glossary On
Versions: 1 2 3 4 5 6 7 8 9 10 11 12 13 14 15 16 17 18 19 20 21 22 23 24 25 26 27 28 29 30 31
000
FTUS41 KOKX 030200 AAB
TAFSWF
TAF AMD
KSWF 030234Z 0303/0406 24008KT P6SM BKN060 BKN150
     FM030500 28007KT P6SM SCT060 SCT150
     FM031500 32010KT P6SM SCT250
     FM040000 32005KT P6SM SKC
      AMD NOT SKED=

USA.gov is the U.S. government's official web portal to all federal, state and local government web resources and services.